sensor_id;sensor_type;location;lat;lon;timestamp;temperature;humidity
3356;DHT22;1691;52.486;13.374;2023-04-25T00:02:24;9.30;85.40
3356;DHT22;1691;52.486;13.374;2023-04-25T00:04:51;9.30;85.60
3356;DHT22;1691;52.486;13.374;2023-04-25T00:07:19;9.30;85.40
3356;DHT22;1691;52.486;13.374;2023-04-25T00:09:46;9.20;85.40
3356;DHT22;1691;52.486;13.374;2023-04-25T00:12:13;9.20;85.40
3356;DHT22;1691;52.486;13.374;2023-04-25T00:14:40;9.20;85.40
3356;DHT22;1691;52.486;13.374;2023-04-25T00:17:07;9.20;85.20
3356;DHT22;1691;52.486;13.374;2023-04-25T00:19:34;9.20;85.20
3356;DHT22;1691;52.486;13.374;2023-04-25T00:22:01;9.20;85.20
3356;DHT22;1691;52.486;13.374;2023-04-25T00:24:28;9.20;85.10
3356;DHT22;1691;52.486;13.374;2023-04-25T00:26:55;9.20;85.10
3356;DHT22;1691;52.486;13.374;2023-04-25T00:29:22;9.30;84.90
3356;DHT22;1691;52.486;13.374;2023-04-25T00:31:49;9.30;84.90
3356;DHT22;1691;52.486;13.374;2023-04-25T00:34:16;9.30;84.70
3356;DHT22;1691;52.486;13.374;2023-04-25T00:36:43;9.30;84.70
3356;DHT22;1691;52.486;13.374;2023-04-25T00:39:10;9.40;84.50
3356;DHT22;1691;52.486;13.374;2023-04-25T00:41:38;9.40;84.30
3356;DHT22;1691;52.486;13.374;2023-04-25T00:44:08;9.40;84.10
3356;DHT22;1691;52.486;13.374;2023-04-25T00:46:39;9.40;83.90
3356;DHT22;1691;52.486;13.374;2023-04-25T00:49:06;9.50;83.90
3356;DHT22;1691;52.486;13.374;2023-04-25T00:51:33;9.50;83.90
3356;DHT22;1691;52.486;13.374;2023-04-25T00:54:01;9.60;83.80
3356;DHT22;1691;52.486;13.374;2023-04-25T00:56:28;9.60;83.60
3356;DHT22;1691;52.486;13.374;2023-04-25T00:58:55;9.60;83.40
3356;DHT22;1691;52.486;13.374;2023-04-25T01:01:23;9.60;83.40
3356;DHT22;1691;52.486;13.374;2023-04-25T01:03:50;9.60;83.40
3356;DHT22;1691;52.486;13.374;2023-04-25T01:06:18;9.70;83.40
3356;DHT22;1691;52.486;13.374;2023-04-25T01:08:45;9.70;83.40
3356;DHT22;1691;52.486;13.374;2023-04-25T01:11:12;9.70;83.20
3356;DHT22;1691;52.486;13.374;2023-04-25T01:13:39;9.70;83.20
3356;DHT22;1691;52.486;13.374;2023-04-25T01:16:06;9.60;83.40
3356;DHT22;1691;52.486;13.374;2023-04-25T01:18:33;9.60;83.20
3356;DHT22;1691;52.486;13.374;2023-04-25T01:21:10;9.60;83.40
3356;DHT22;1691;52.486;13.374;2023-04-25T01:23:40;9.60;83.40
3356;DHT22;1691;52.486;13.374;2023-04-25T01:26:11;9.60;83.40
3356;DHT22;1691;52.486;13.374;2023-04-25T01:28:39;9.60;83.40
3356;DHT22;1691;52.486;13.374;2023-04-25T01:31:11;9.60;83.40
3356;DHT22;1691;52.486;13.374;2023-04-25T01:33:38;9.60;83.40
3356;DHT22;1691;52.486;13.374;2023-04-25T01:36:05;9.60;83.40
3356;DHT22;1691;52.486;13.374;2023-04-25T01:38:33;9.60;83.40
3356;DHT22;1691;52.486;13.374;2023-04-25T01:40:59;9.60;83.20
3356;DHT22;1691;52.486;13.374;2023-04-25T01:43:26;9.60;83.20
3356;DHT22;1691;52.486;13.374;2023-04-25T01:45:54;9.60;83.20
3356;DHT22;1691;52.486;13.374;2023-04-25T01:48:21;9.60;83.20
3356;DHT22;1691;52.486;13.374;2023-04-25T01:50:48;9.60;83.20
3356;DHT22;1691;52.486;13.374;2023-04-25T01:53:15;9.60;83.20
3356;DHT22;1691;52.486;13.374;2023-04-25T01:55:42;9.60;83.20
3356;DHT22;1691;52.486;13.374;2023-04-25T01:58:09;9.60;83.20
3356;DHT22;1691;52.486;13.374;2023-04-25T02:00:38;9.60;83.20
3356;DHT22;1691;52.486;13.374;2023-04-25T02:03:07;9.60;83.20
3356;DHT22;1691;52.486;13.374;2023-04-25T02:05:36;9.60;83.20
3356;DHT22;1691;52.486;13.374;2023-04-25T02:08:06;9.60;83.20
3356;DHT22;1691;52.486;13.374;2023-04-25T02:10:35;9.60;83.00
3356;DHT22;1691;52.486;13.374;2023-04-25T02:13:02;9.60;83.00
3356;DHT22;1691;52.486;13.374;2023-04-25T02:15:31;9.60;83.00
3356;DHT22;1691;52.486;13.374;2023-04-25T02:17:58;9.60;83.00
3356;DHT22;1691;52.486;13.374;2023-04-25T02:20:29;9.70;83.00
3356;DHT22;1691;52.486;13.374;2023-04-25T02:22:57;9.70;83.00
3356;DHT22;1691;52.486;13.374;2023-04-25T02:25:24;9.70;83.00
3356;DHT22;1691;52.486;13.374;2023-04-25T02:27:51;9.70;82.80
3356;DHT22;1691;52.486;13.374;2023-04-25T02:30:18;9.70;82.80
3356;DHT22;1691;52.486;13.374;2023-04-25T02:32:45;9.60;83.00
3356;DHT22;1691;52.486;13.374;2023-04-25T02:35:12;9.60;83.00
3356;DHT22;1691;52.486;13.374;2023-04-25T02:37:40;9.60;83.00
3356;DHT22;1691;52.486;13.374;2023-04-25T02:40:07;9.60;83.00
3356;DHT22;1691;52.486;13.374;2023-04-25T02:42:35;9.70;83.00
3356;DHT22;1691;52.486;13.374;2023-04-25T02:45:02;9.70;83.00
3356;DHT22;1691;52.486;13.374;2023-04-25T02:47:29;9.70;83.00
3356;DHT22;1691;52.486;13.374;2023-04-25T02:49:57;9.60;83.00
3356;DHT22;1691;52.486;13.374;2023-04-25T02:52:24;9.60;83.00
3356;DHT22;1691;52.486;13.374;2023-04-25T02:54:51;9.60;83.00
3356;DHT22;1691;52.486;13.374;2023-04-25T02:57:18;9.60;83.00
3356;DHT22;1691;52.486;13.374;2023-04-25T02:59:45;9.60;83.20
3356;DHT22;1691;52.486;13.374;2023-04-25T03:02:12;9.60;83.20
3356;DHT22;1691;52.486;13.374;2023-04-25T03:04:39;9.50;83.20
3356;DHT22;1691;52.486;13.374;2023-04-25T03:07:06;9.50;83.20
3356;DHT22;1691;52.486;13.374;2023-04-25T03:09:33;9.50;83.40
3356;DHT22;1691;52.486;13.374;2023-04-25T03:12:01;9.50;83.40
3356;DHT22;1691;52.486;13.374;2023-04-25T03:14:28;9.50;83.40
3356;DHT22;1691;52.486;13.374;2023-04-25T03:16:55;9.50;83.40
3356;DHT22;1691;52.486;13.374;2023-04-25T03:19:22;9.50;83.40
3356;DHT22;1691;52.486;13.374;2023-04-25T03:21:49;9.50;83.40
3356;DHT22;1691;52.486;13.374;2023-04-25T03:24:16;9.50;83.40
3356;DHT22;1691;52.486;13.374;2023-04-25T03:26:43;9.50;83.60
3356;DHT22;1691;52.486;13.374;2023-04-25T03:29:10;9.50;83.60
3356;DHT22;1691;52.486;13.374;2023-04-25T03:31:37;9.40;83.80
3356;DHT22;1691;52.486;13.374;2023-04-25T03:34:04;9.50;83.80
3356;DHT22;1691;52.486;13.374;2023-04-25T03:36:31;9.50;83.80
3356;DHT22;1691;52.486;13.374;2023-04-25T03:38:59;9.50;83.80
3356;DHT22;1691;52.486;13.374;2023-04-25T03:41:26;9.50;83.80
3356;DHT22;1691;52.486;13.374;2023-04-25T03:43:53;9.50;83.80
3356;DHT22;1691;52.486;13.374;2023-04-25T03:46:20;9.50;83.80
3356;DHT22;1691;52.486;13.374;2023-04-25T03:48:47;9.50;83.80
3356;DHT22;1691;52.486;13.374;2023-04-25T03:51:14;9.50;83.90
3356;DHT22;1691;52.486;13.374;2023-04-25T03:53:41;9.50;83.90
3356;DHT22;1691;52.486;13.374;2023-04-25T03:56:07;9.50;83.90
3356;DHT22;1691;52.486;13.374;2023-04-25T03:58:36;9.40;83.90
3356;DHT22;1691;52.486;13.374;2023-04-25T04:01:02;9.50;84.10
3356;DHT22;1691;52.486;13.374;2023-04-25T04:03:34;9.40;84.10
3356;DHT22;1691;52.486;13.374;2023-04-25T04:06:05;9.40;84.10
3356;DHT22;1691;52.486;13.374;2023-04-25T04:08:33;9.40;84.30
3356;DHT22;1691;52.486;13.374;2023-04-25T04:11:00;9.40;84.30
3356;DHT22;1691;52.486;13.374;2023-04-25T04:13:28;9.40;84.50
3356;DHT22;1691;52.486;13.374;2023-04-25T04:15:55;9.40;84.30
3356;DHT22;1691;52.486;13.374;2023-04-25T04:18:22;9.40;84.30
3356;DHT22;1691;52.486;13.374;2023-04-25T04:20:50;9.40;84.50
3356;DHT22;1691;52.486;13.374;2023-04-25T04:23:17;9.40;84.30
3356;DHT22;1691;52.486;13.374;2023-04-25T04:25:45;9.40;84.30
3356;DHT22;1691;52.486;13.374;2023-04-25T04:28:13;9.50;84.30
3356;DHT22;1691;52.486;13.374;2023-04-25T04:30:40;9.50;84.50
3356;DHT22;1691;52.486;13.374;2023-04-25T04:33:08;9.50;84.50
3356;DHT22;1691;52.486;13.374;2023-04-25T04:35:35;9.50;84.50
3356;DHT22;1691;52.486;13.374;2023-04-25T04:38:02;9.60;84.50
3356;DHT22;1691;52.486;13.374;2023-04-25T04:40:29;9.60;84.30
3356;DHT22;1691;52.486;13.374;2023-04-25T04:42:59;9.60;84.30
3356;DHT22;1691;52.486;13.374;2023-04-25T04:45:26;9.60;84.50
3356;DHT22;1691;52.486;13.374;2023-04-25T04:47:54;9.70;84.30
3356;DHT22;1691;52.486;13.374;2023-04-25T04:50:22;9.70;84.30
3356;DHT22;1691;52.486;13.374;2023-04-25T04:52:49;9.70;84.30
3356;DHT22;1691;52.486;13.374;2023-04-25T04:55:16;9.80;84.10
3356;DHT22;1691;52.486;13.374;2023-04-25T04:57:43;9.80;84.10
3356;DHT22;1691;52.486;13.374;2023-04-25T05:00:11;9.90;84.10
3356;DHT22;1691;52.486;13.374;2023-04-25T05:02:39;9.90;83.80
3356;DHT22;1691;52.486;13.374;2023-04-25T05:05:07;9.90;83.80
3356;DHT22;1691;52.486;13.374;2023-04-25T05:07:34;10.00;83.80
3356;DHT22;1691;52.486;13.374;2023-04-25T05:10:01;10.00;83.60
3356;DHT22;1691;52.486;13.374;2023-04-25T05:12:28;10.10;83.60
3356;DHT22;1691;52.486;13.374;2023-04-25T05:14:55;10.10;83.60
3356;DHT22;1691;52.486;13.374;2023-04-25T05:17:22;10.10;83.40
3356;DHT22;1691;52.486;13.374;2023-04-25T05:19:49;10.20;83.40
3356;DHT22;1691;52.486;13.374;2023-04-25T05:22:16;10.20;83.40
3356;DHT22;1691;52.486;13.374;2023-04-25T05:24:43;10.20;83.20
3356;DHT22;1691;52.486;13.374;2023-04-25T05:27:10;10.20;83.20
3356;DHT22;1691;52.486;13.374;2023-04-25T05:29:37;10.20;83.20
3356;DHT22;1691;52.486;13.374;2023-04-25T05:32:05;10.20;83.20
3356;DHT22;1691;52.486;13.374;2023-04-25T05:34:32;10.20;83.20
3356;DHT22;1691;52.486;13.374;2023-04-25T05:36:59;10.20;83.20
3356;DHT22;1691;52.486;13.374;2023-04-25T05:39:27;10.20;83.20
3356;DHT22;1691;52.486;13.374;2023-04-25T05:41:53;10.20;83.20
3356;DHT22;1691;52.486;13.374;2023-04-25T05:44:21;10.20;83.20
3356;DHT22;1691;52.486;13.374;2023-04-25T05:46:48;10.30;83.20
3356;DHT22;1691;52.486;13.374;2023-04-25T05:49:15;10.30;83.00
3356;DHT22;1691;52.486;13.374;2023-04-25T05:51:45;10.30;82.80
3356;DHT22;1691;52.486;13.374;2023-04-25T05:54:12;10.30;82.80
3356;DHT22;1691;52.486;13.374;2023-04-25T05:56:38;10.30;82.60
3356;DHT22;1691;52.486;13.374;2023-04-25T05:59:05;10.30;83.00
3356;DHT22;1691;52.486;13.374;2023-04-25T06:01:32;10.30;83.00
3356;DHT22;1691;52.486;13.374;2023-04-25T06:03:59;10.30;83.00
3356;DHT22;1691;52.486;13.374;2023-04-25T06:06:27;10.20;83.20
3356;DHT22;1691;52.486;13.374;2023-04-25T06:08:54;10.20;83.40
3356;DHT22;1691;52.486;13.374;2023-04-25T06:11:22;10.30;83.60
3356;DHT22;1691;52.486;13.374;2023-04-25T06:13:49;10.30;83.60
3356;DHT22;1691;52.486;13.374;2023-04-25T06:16:16;10.30;83.40
3356;DHT22;1691;52.486;13.374;2023-04-25T06:18:43;10.30;83.40
3356;DHT22;1691;52.486;13.374;2023-04-25T06:21:10;10.40;83.40
3356;DHT22;1691;52.486;13.374;2023-04-25T06:23:37;10.30;83.40
3356;DHT22;1691;52.486;13.374;2023-04-25T06:26:04;10.40;83.60
3356;DHT22;1691;52.486;13.374;2023-04-25T06:28:31;10.40;83.60
3356;DHT22;1691;52.486;13.374;2023-04-25T06:30:58;10.40;83.80
3356;DHT22;1691;52.486;13.374;2023-04-25T06:33:25;10.50;83.60
3356;DHT22;1691;52.486;13.374;2023-04-25T06:35:53;10.50;83.60
3356;DHT22;1691;52.486;13.374;2023-04-25T06:38:20;10.50;83.60
3356;DHT22;1691;52.486;13.374;2023-04-25T06:40:47;10.50;83.60
3356;DHT22;1691;52.486;13.374;2023-04-25T06:43:13;10.50;83.60
3356;DHT22;1691;52.486;13.374;2023-04-25T06:45:40;10.50;83.80
3356;DHT22;1691;52.486;13.374;2023-04-25T06:48:08;10.50;83.90
3356;DHT22;1691;52.486;13.374;2023-04-25T06:50:35;10.50;83.90
3356;DHT22;1691;52.486;13.374;2023-04-25T06:53:03;10.60;83.90
3356;DHT22;1691;52.486;13.374;2023-04-25T06:55:29;10.70;83.80
3356;DHT22;1691;52.486;13.374;2023-04-25T06:57:56;10.70;83.60
3356;DHT22;1691;52.486;13.374;2023-04-25T07:00:23;10.80;83.60
3356;DHT22;1691;52.486;13.374;2023-04-25T07:02:51;10.80;83.40
3356;DHT22;1691;52.486;13.374;2023-04-25T07:05:18;10.80;83.20
3356;DHT22;1691;52.486;13.374;2023-04-25T07:07:45;10.70;83.40
3356;DHT22;1691;52.486;13.374;2023-04-25T07:10:12;10.70;83.60
3356;DHT22;1691;52.486;13.374;2023-04-25T07:12:39;10.70;83.80
3356;DHT22;1691;52.486;13.374;2023-04-25T07:44:12;10.10;86.20
3356;DHT22;1691;52.486;13.374;2023-04-25T07:51:26;10.20;85.80
3356;DHT22;1691;52.486;13.374;2023-04-25T08:07:23;10.50;83.60
3356;DHT22;1691;52.486;13.374;2023-04-25T08:11:24;10.50;82.80
3356;DHT22;1691;52.486;13.374;2023-04-25T08:35:22;13.30;73.10
3356;DHT22;1691;52.486;13.374;2023-04-25T08:51:38;13.50;65.50
3356;DHT22;1691;52.486;13.374;2023-04-25T09:08:16;15.90;55.20
3356;DHT22;1691;52.486;13.374;2023-04-25T09:29:10;22.20;39.50
3356;DHT22;1691;52.486;13.374;2023-04-25T10:02:43;16.50;42.10
3356;DHT22;1691;52.486;13.374;2023-04-25T11:09:35;14.00;43.80
3356;DHT22;1691;52.486;13.374;2023-04-25T11:17:24;14.20;43.60
3356;DHT22;1691;52.486;13.374;2023-04-25T12:17:05;13.10;43.30
3356;DHT22;1691;52.486;13.374;2023-04-25T12:38:30;14.10;41.90
3356;DHT22;1691;52.486;13.374;2023-04-25T13:32:41;13.20;42.10
3356;DHT22;1691;52.486;13.374;2023-04-25T14:12:07;13.20;43.50
3356;DHT22;1691;52.486;13.374;2023-04-25T14:45:44;12.20;44.70
3356;DHT22;1691;52.486;13.374;2023-04-25T14:49:38;12.30;44.70
3356;DHT22;1691;52.486;13.374;2023-04-25T14:57:39;12.50;44.70
3356;DHT22;1691;52.486;13.374;2023-04-25T15:05:43;12.40;45.20
3356;DHT22;1691;52.486;13.374;2023-04-25T15:09:12;12.10;45.80
3356;DHT22;1691;52.486;13.374;2023-04-25T15:13:18;11.90;46.40
3356;DHT22;1691;52.486;13.374;2023-04-25T15:33:39;11.70;48.20
3356;DHT22;1691;52.486;13.374;2023-04-25T16:30:27;11.00;48.90
3356;DHT22;1691;52.486;13.374;2023-04-25T16:47:53;10.70;47.80
3356;DHT22;1691;52.486;13.374;2023-04-25T17:32:31;10.00;50.10
3356;DHT22;1691;52.486;13.374;2023-04-25T17:34:58;9.90;50.20
3356;DHT22;1691;52.486;13.374;2023-04-25T17:37:25;9.90;50.90
3356;DHT22;1691;52.486;13.374;2023-04-25T17:39:54;10.00;51.90
3356;DHT22;1691;52.486;13.374;2023-04-25T17:42:21;10.10;52.20
3356;DHT22;1691;52.486;13.374;2023-04-25T17:44:48;10.20;51.80
3356;DHT22;1691;52.486;13.374;2023-04-25T17:47:15;10.10;51.80
3356;DHT22;1691;52.486;13.374;2023-04-25T17:49:42;10.00;51.90
3356;DHT22;1691;52.486;13.374;2023-04-25T17:52:09;9.80;52.40
3356;DHT22;1691;52.486;13.374;2023-04-25T17:54:36;9.70;52.70
3356;DHT22;1691;52.486;13.374;2023-04-25T17:57:04;9.60;53.00
3356;DHT22;1691;52.486;13.374;2023-04-25T17:59:31;9.50;53.50
3356;DHT22;1691;52.486;13.374;2023-04-25T18:01:59;9.50;53.60
3356;DHT22;1691;52.486;13.374;2023-04-25T18:04:27;9.40;53.80
3356;DHT22;1691;52.486;13.374;2023-04-25T18:06:55;9.30;54.10
3356;DHT22;1691;52.486;13.374;2023-04-25T18:09:23;9.30;54.40
3356;DHT22;1691;52.486;13.374;2023-04-25T18:11:51;9.20;54.50
3356;DHT22;1691;52.486;13.374;2023-04-25T18:14:21;9.20;54.90
3356;DHT22;1691;52.486;13.374;2023-04-25T18:16:50;9.20;55.20
3356;DHT22;1691;52.486;13.374;2023-04-25T18:19:20;9.20;55.30
3356;DHT22;1691;52.486;13.374;2023-04-25T18:21:49;9.20;55.50
3356;DHT22;1691;52.486;13.374;2023-04-25T18:24:22;9.30;55.80
3356;DHT22;1691;52.486;13.374;2023-04-25T18:26:52;9.30;56.20
3356;DHT22;1691;52.486;13.374;2023-04-25T18:29:21;9.40;56.70
3356;DHT22;1691;52.486;13.374;2023-04-25T18:31:54;9.40;57.20
3356;DHT22;1691;52.486;13.374;2023-04-25T18:34:21;9.40;57.90
3356;DHT22;1691;52.486;13.374;2023-04-25T18:36:52;9.30;58.40
3356;DHT22;1691;52.486;13.374;2023-04-25T18:39:21;9.30;58.90
3356;DHT22;1691;52.486;13.374;2023-04-25T18:41:50;9.30;59.30
3356;DHT22;1691;52.486;13.374;2023-04-25T18:44:26;9.30;59.60
3356;DHT22;1691;52.486;13.374;2023-04-25T18:46:53;9.30;60.10
3356;DHT22;1691;52.486;13.374;2023-04-25T18:49:20;9.30;60.50
3356;DHT22;1691;52.486;13.374;2023-04-25T18:51:47;9.20;61.20
3356;DHT22;1691;52.486;13.374;2023-04-25T18:54:14;9.20;61.60
3356;DHT22;1691;52.486;13.374;2023-04-25T18:56:41;9.10;62.10
3356;DHT22;1691;52.486;13.374;2023-04-25T18:59:08;9.10;62.50
3356;DHT22;1691;52.486;13.374;2023-04-25T19:01:36;9.10;62.70
3356;DHT22;1691;52.486;13.374;2023-04-25T19:04:03;9.10;62.90
3356;DHT22;1691;52.486;13.374;2023-04-25T19:06:32;9.10;62.90
3356;DHT22;1691;52.486;13.374;2023-04-25T19:08:59;9.20;62.90
3356;DHT22;1691;52.486;13.374;2023-04-25T19:11:27;9.20;63.10
3356;DHT22;1691;52.486;13.374;2023-04-25T19:13:55;9.20;63.10
3356;DHT22;1691;52.486;13.374;2023-04-25T19:16:22;9.20;63.30
3356;DHT22;1691;52.486;13.374;2023-04-25T19:18:53;9.10;63.40
3356;DHT22;1691;52.486;13.374;2023-04-25T19:21:21;9.10;63.60
3356;DHT22;1691;52.486;13.374;2023-04-25T19:23:49;9.10;63.60
3356;DHT22;1691;52.486;13.374;2023-04-25T19:26:19;9.00;63.60
3356;DHT22;1691;52.486;13.374;2023-04-25T19:28:46;9.00;63.80
3356;DHT22;1691;52.486;13.374;2023-04-25T19:31:13;8.90;63.80
3356;DHT22;1691;52.486;13.374;2023-04-25T19:33:40;8.80;64.20
3356;DHT22;1691;52.486;13.374;2023-04-25T19:36:07;8.60;64.40
3356;DHT22;1691;52.486;13.374;2023-04-25T19:38:34;8.60;64.60
3356;DHT22;1691;52.486;13.374;2023-04-25T19:41:01;8.50;64.40
3356;DHT22;1691;52.486;13.374;2023-04-25T19:43:28;8.50;64.40
3356;DHT22;1691;52.486;13.374;2023-04-25T19:45:56;8.40;64.40
3356;DHT22;1691;52.486;13.374;2023-04-25T19:48:23;8.40;64.20
3356;DHT22;1691;52.486;13.374;2023-04-25T19:50:50;8.30;64.00
3356;DHT22;1691;52.486;13.374;2023-04-25T19:53:17;8.30;64.20
3356;DHT22;1691;52.486;13.374;2023-04-25T19:55:44;8.30;64.00
3356;DHT22;1691;52.486;13.374;2023-04-25T19:58:11;8.20;63.60
3356;DHT22;1691;52.486;13.374;2023-04-25T20:00:39;8.20;64.00
3356;DHT22;1691;52.486;13.374;2023-04-25T20:03:06;8.10;64.20
3356;DHT22;1691;52.486;13.374;2023-04-25T20:05:36;8.10;64.40
3356;DHT22;1691;52.486;13.374;2023-04-25T20:08:03;8.00;64.40
3356;DHT22;1691;52.486;13.374;2023-04-25T20:10:30;8.00;64.60
3356;DHT22;1691;52.486;13.374;2023-04-25T20:12:57;8.00;64.70
3356;DHT22;1691;52.486;13.374;2023-04-25T20:15:24;7.90;64.60
3356;DHT22;1691;52.486;13.374;2023-04-25T20:17:51;7.90;64.90
3356;DHT22;1691;52.486;13.374;2023-04-25T20:20:18;7.90;64.90
3356;DHT22;1691;52.486;13.374;2023-04-25T20:22:45;7.80;64.90
3356;DHT22;1691;52.486;13.374;2023-04-25T20:25:12;7.80;64.90
3356;DHT22;1691;52.486;13.374;2023-04-25T20:27:39;7.70;65.30
3356;DHT22;1691;52.486;13.374;2023-04-25T20:30:07;7.70;65.70
3356;DHT22;1691;52.486;13.374;2023-04-25T20:32:36;7.70;65.70
3356;DHT22;1691;52.486;13.374;2023-04-25T20:35:05;7.60;65.90
3356;DHT22;1691;52.486;13.374;2023-04-25T20:37:33;7.60;66.10
3356;DHT22;1691;52.486;13.374;2023-04-25T20:40:03;7.50;66.20
3356;DHT22;1691;52.486;13.374;2023-04-25T20:42:31;7.50;66.40
3356;DHT22;1691;52.486;13.374;2023-04-25T20:44:59;7.50;66.60
3356;DHT22;1691;52.486;13.374;2023-04-25T20:47:26;7.50;66.80
3356;DHT22;1691;52.486;13.374;2023-04-25T20:49:54;7.50;66.60
3356;DHT22;1691;52.486;13.374;2023-04-25T20:52:21;7.40;66.80
3356;DHT22;1691;52.486;13.374;2023-04-25T20:54:49;7.40;67.00
3356;DHT22;1691;52.486;13.374;2023-04-25T20:57:17;7.40;67.20
3356;DHT22;1691;52.486;13.374;2023-04-25T20:59:44;7.40;67.50
3356;DHT22;1691;52.486;13.374;2023-04-25T21:02:14;7.40;67.50
3356;DHT22;1691;52.486;13.374;2023-04-25T21:04:42;7.40;67.90
3356;DHT22;1691;52.486;13.374;2023-04-25T21:07:11;7.50;67.70
3356;DHT22;1691;52.486;13.374;2023-04-25T21:09:42;7.50;67.70
3356;DHT22;1691;52.486;13.374;2023-04-25T21:12:11;7.60;67.50
3356;DHT22;1691;52.486;13.374;2023-04-25T21:14:38;7.70;67.50
3356;DHT22;1691;52.486;13.374;2023-04-25T21:17:05;7.80;67.20
3356;DHT22;1691;52.486;13.374;2023-04-25T21:19:32;7.80;67.00
3356;DHT22;1691;52.486;13.374;2023-04-25T21:21:59;7.80;67.00
3356;DHT22;1691;52.486;13.374;2023-04-25T21:24:27;7.70;67.00
3356;DHT22;1691;52.486;13.374;2023-04-25T21:26:56;7.70;67.00
3356;DHT22;1691;52.486;13.374;2023-04-25T21:29:23;7.60;67.20
3356;DHT22;1691;52.486;13.374;2023-04-25T21:31:50;7.50;67.40
3356;DHT22;1691;52.486;13.374;2023-04-25T21:34:18;7.40;67.40
3356;DHT22;1691;52.486;13.374;2023-04-25T21:36:45;7.40;67.50
3356;DHT22;1691;52.486;13.374;2023-04-25T21:39:12;7.30;67.50
3356;DHT22;1691;52.486;13.374;2023-04-25T21:41:40;7.30;67.50
3356;DHT22;1691;52.486;13.374;2023-04-25T21:44:09;7.20;67.50
3356;DHT22;1691;52.486;13.374;2023-04-25T21:46:38;7.20;67.50
3356;DHT22;1691;52.486;13.374;2023-04-25T21:49:05;7.20;67.70
3356;DHT22;1691;52.486;13.374;2023-04-25T21:51:32;7.10;67.70
3356;DHT22;1691;52.486;13.374;2023-04-25T21:54:00;7.10;67.90
3356;DHT22;1691;52.486;13.374;2023-04-25T21:56:31;7.00;67.90
3356;DHT22;1691;52.486;13.374;2023-04-25T21:58:58;7.00;67.90
3356;DHT22;1691;52.486;13.374;2023-04-25T22:01:25;7.00;68.10
3356;DHT22;1691;52.486;13.374;2023-04-25T22:03:53;6.90;68.10
3356;DHT22;1691;52.486;13.374;2023-04-25T22:06:20;6.90;68.30
3356;DHT22;1691;52.486;13.374;2023-04-25T22:08:47;6.80;68.50
3356;DHT22;1691;52.486;13.374;2023-04-25T22:11:15;6.80;68.70
3356;DHT22;1691;52.486;13.374;2023-04-25T22:13:42;6.80;68.80
3356;DHT22;1691;52.486;13.374;2023-04-25T22:16:11;6.70;69.40
3356;DHT22;1691;52.486;13.374;2023-04-25T22:18:38;6.70;69.60
3356;DHT22;1691;52.486;13.374;2023-04-25T22:21:06;6.70;70.00
3356;DHT22;1691;52.486;13.374;2023-04-25T22:23:34;6.60;70.10
3356;DHT22;1691;52.486;13.374;2023-04-25T22:26:03;6.60;70.30
3356;DHT22;1691;52.486;13.374;2023-04-25T22:28:30;6.60;70.50
3356;DHT22;1691;52.486;13.374;2023-04-25T22:30:58;6.60;70.70
3356;DHT22;1691;52.486;13.374;2023-04-25T22:33:25;6.50;71.10
3356;DHT22;1691;52.486;13.374;2023-04-25T22:35:52;6.50;71.30
3356;DHT22;1691;52.486;13.374;2023-04-25T22:38:19;6.50;71.50
3356;DHT22;1691;52.486;13.374;2023-04-25T22:40:47;6.50;71.60
3356;DHT22;1691;52.486;13.374;2023-04-25T22:43:14;6.40;71.80
3356;DHT22;1691;52.486;13.374;2023-04-25T22:45:41;6.40;71.80
3356;DHT22;1691;52.486;13.374;2023-04-25T22:48:08;6.40;72.00
3356;DHT22;1691;52.486;13.374;2023-04-25T22:50:35;6.30;72.20
3356;DHT22;1691;52.486;13.374;2023-04-25T22:53:06;6.30;72.40
3356;DHT22;1691;52.486;13.374;2023-04-25T22:55:35;6.20;72.40
3356;DHT22;1691;52.486;13.374;2023-04-25T22:58:03;6.20;72.60
3356;DHT22;1691;52.486;13.374;2023-04-25T23:00:30;6.20;72.80
3356;DHT22;1691;52.486;13.374;2023-04-25T23:03:00;6.20;72.80
3356;DHT22;1691;52.486;13.374;2023-04-25T23:05:29;6.10;72.80
3356;DHT22;1691;52.486;13.374;2023-04-25T23:07:58;6.10;73.10
3356;DHT22;1691;52.486;13.374;2023-04-25T23:10:26;6.10;73.10
3356;DHT22;1691;52.486;13.374;2023-04-25T23:12:54;6.10;73.70
3356;DHT22;1691;52.486;13.374;2023-04-25T23:15:26;6.00;73.90
3356;DHT22;1691;52.486;13.374;2023-04-25T23:17:56;6.00;74.10
3356;DHT22;1691;52.486;13.374;2023-04-25T23:20:24;6.00;74.40
3356;DHT22;1691;52.486;13.374;2023-04-25T23:22:51;5.90;74.60
3356;DHT22;1691;52.486;13.374;2023-04-25T23:25:18;5.90;74.80
3356;DHT22;1691;52.486;13.374;2023-04-25T23:27:46;5.90;75.00
3356;DHT22;1691;52.486;13.374;2023-04-25T23:30:14;5.80;75.20
3356;DHT22;1691;52.486;13.374;2023-04-25T23:32:41;5.80;75.40
3356;DHT22;1691;52.486;13.374;2023-04-25T23:35:09;5.80;75.40
3356;DHT22;1691;52.486;13.374;2023-04-25T23:37:38;5.80;75.60
3356;DHT22;1691;52.486;13.374;2023-04-25T23:40:07;5.70;75.60
3356;DHT22;1691;52.486;13.374;2023-04-25T23:42:39;5.70;75.70
3356;DHT22;1691;52.486;13.374;2023-04-25T23:45:08;5.70;75.90
3356;DHT22;1691;52.486;13.374;2023-04-25T23:47:35;5.70;76.10
3356;DHT22;1691;52.486;13.374;2023-04-25T23:50:03;5.60;76.30
3356;DHT22;1691;52.486;13.374;2023-04-25T23:52:30;5.60;76.50
3356;DHT22;1691;52.486;13.374;2023-04-25T23:54:57;5.60;76.50
3356;DHT22;1691;52.486;13.374;2023-04-25T23:57:24;5.50;76.70
3356;DHT22;1691;52.486;13.374;2023-04-25T23:59:51;5.50;76.90
